Time;durP1;ratioP1;P1;durP2;ratioP2;P2;SDS_P1;SDS_P2;PMS_P1;PMS_P2;Temp;Humidity;BMP_temperature;BMP_pressure;BME280_temperature;BME280_humidity;BME280_pressure;Samples;Min_cycle;Max_cycle;Signal;HPM_P1;HPM_P2
2022/07/10 00:00:09;;;;;;;6.68;2.25;;;;;;;13.44;77.12;102700.09;5024549;28;20037;-65
2022/07/10 00:02:34;;;;;;;9.88;2.30;;;;;;;13.41;77.93;102709.63;5021274;28;20107;-66
2022/07/10 00:04:59;;;;;;;8.07;2.33;;;;;;;13.42;77.40;102714.06;5026392;28;20029;-65
2022/07/10 00:07:25;;;;;;;7.45;2.58;;;;;;;13.43;77.91;102704.75;5025180;28;20416;-64
2022/07/10 00:09:50;;;;;;;9.40;2.30;;;;;;;13.45;77.24;102702.63;5024798;28;20090;-65
2022/07/10 00:12:15;;;;;;;8.00;2.55;;;;;;;13.42;77.92;102699.44;5022549;28;20037;-65
2022/07/10 00:14:41;;;;;;;7.75;2.20;;;;;;;13.39;78.24;102697.94;5028332;28;20033;-65
2022/07/10 00:17:06;;;;;;;7.10;2.08;;;;;;;13.34;78.25;102694.09;5022438;28;20544;-65
2022/07/10 00:19:31;;;;;;;6.50;2.40;;;;;;;13.25;78.73;102685.13;5024579;28;20036;-65
2022/07/10 00:21:56;;;;;;;7.28;2.47;;;;;;;13.22;79.12;102691.88;5023457;28;20534;-65
2022/07/10 00:24:22;;;;;;;8.05;2.22;;;;;;;13.15;78.98;102690.13;5023073;28;20699;-65
2022/07/10 00:26:47;;;;;;;8.27;2.53;;;;;;;13.14;79.63;102691.19;5024532;28;20034;-65
2022/07/10 00:29:13;;;;;;;5.25;2.50;;;;;;;13.09;79.26;102691.78;5024800;28;20334;-65
2022/07/10 00:31:38;;;;;;;5.95;2.22;;;;;;;13.07;79.65;102701.31;5024602;28;20045;-65
2022/07/10 00:34:04;;;;;;;8.32;2.40;;;;;;;13.08;79.94;102690.09;5025660;28;20044;-64
2022/07/10 00:36:29;;;;;;;7.88;2.38;;;;;;;13.11;79.81;102694.34;5024018;28;20029;-64
2022/07/10 00:38:54;;;;;;;11.32;2.42;;;;;;;13.10;79.27;102685.22;5022927;28;20753;-65
2022/07/10 00:41:19;;;;;;;7.82;2.65;;;;;;;13.17;79.48;102688.84;5025576;28;20021;-65
2022/07/10 00:43:53;;;;;;;10.65;2.75;;;;;;;13.19;79.28;102686.75;5025840;28;20144;-65
2022/07/10 00:46:22;;;;;;;8.70;2.90;;;;;;;13.27;79.06;102671.97;5023869;28;20018;-64
2022/07/10 00:48:48;;;;;;;11.23;2.85;;;;;;;13.31;78.95;102677.94;5024649;28;20515;-65
2022/07/10 00:51:16;;;;;;;8.15;3.00;;;;;;;13.36;79.07;102675.41;5025252;28;20064;-65
2022/07/10 00:53:42;;;;;;;7.72;2.67;;;;;;;13.41;78.32;102673.72;5023974;28;20033;-65
2022/07/10 00:56:08;;;;;;;9.52;2.65;;;;;;;13.44;78.48;102673.34;5023543;28;20476;-65
2022/07/10 00:58:35;;;;;;;7.68;2.60;;;;;;;13.47;78.32;102666.53;5025158;28;20064;-65
2022/07/10 01:01:02;;;;;;;10.27;2.85;;;;;;;13.50;78.51;102661.47;5021802;28;20032;-65
2022/07/10 01:03:27;;;;;;;6.47;2.65;;;;;;;13.47;78.45;102658.25;5024912;28;20057;-65
2022/07/10 01:05:53;;;;;;;7.60;2.55;;;;;;;13.44;78.42;102654.00;5023667;28;20632;-65
2022/07/10 01:08:18;;;;;;;8.27;3.10;;;;;;;13.42;77.69;102650.59;5005568;22;20133;-65
2022/07/10 01:10:44;;;;;;;6.38;2.88;;;;;;;13.31;78.26;102647.56;4986356;28;20030;-65
2022/07/10 01:13:10;;;;;;;7.15;3.03;;;;;;;13.26;78.85;102641.81;4984806;28;20468;-65
2022/07/10 01:15:36;;;;;;;6.68;2.90;;;;;;;13.22;78.88;102646.88;4998668;28;20034;-65
2022/07/10 01:18:02;;;;;;;5.60;2.58;;;;;;;13.19;78.93;102641.75;4997681;28;20014;-65
2022/07/10 01:20:31;;;;;;;6.20;2.92;;;;;;;13.16;79.37;102639.41;4984719;28;20049;-65
2022/07/10 01:22:56;;;;;;;7.65;2.78;;;;;;;13.09;80.24;102639.38;4999650;28;20018;-65
2022/07/10 01:25:21;;;;;;;8.75;2.80;;;;;;;13.02;80.73;102632.09;4985987;28;20369;-64
2022/07/10 01:27:47;;;;;;;6.88;3.05;;;;;;;12.97;80.22;102636.31;4984389;28;20084;-65
2022/07/10 01:30:12;;;;;;;9.90;2.97;;;;;;;12.91;80.59;102650.06;4985174;28;20029;-65
2022/07/10 01:32:39;;;;;;;8.77;2.83;;;;;;;12.86;80.99;102650.66;4985888;28;20103;-65
2022/07/10 01:35:05;;;;;;;9.70;3.27;;;;;;;12.78;80.87;102656.38;5003992;28;20044;-65
2022/07/10 01:37:30;;;;;;;8.90;2.92;;;;;;;12.71;81.91;102655.44;4995892;28;20296;-64
2022/07/10 01:39:56;;;;;;;7.18;2.90;;;;;;;12.69;81.47;102654.81;5008124;28;20365;-65
2022/07/10 01:42:21;;;;;;;8.00;3.15;;;;;;;12.67;82.16;102652.25;5009173;28;20073;-64
2022/07/10 01:44:46;;;;;;;9.48;3.03;;;;;;;12.61;81.71;102652.19;5007802;28;20449;-65
2022/07/10 01:47:11;;;;;;;7.82;2.83;;;;;;;12.61;82.25;102647.53;5005188;28;20037;-64
2022/07/10 01:49:37;;;;;;;6.50;2.90;;;;;;;12.57;82.07;102643.50;5008963;28;20052;-64
2022/07/10 01:52:03;;;;;;;11.23;3.70;;;;;;;12.56;82.57;102650.03;5007238;28;20064;-65
2022/07/10 01:54:28;;;;;;;8.13;3.10;;;;;;;12.56;82.69;102647.28;5003875;28;20479;-65
2022/07/10 01:56:54;;;;;;;6.00;3.22;;;;;;;12.60;82.13;102647.72;5000900;28;20503;-65
2022/07/10 01:59:19;;;;;;;8.02;2.90;;;;;;;12.57;83.05;102642.59;5008689;28;20040;-65
2022/07/10 02:01:44;;;;;;;9.13;3.10;;;;;;;12.51;83.08;102638.75;4997079;28;20062;-64
2022/07/10 02:06:53;;;;;;;9.15;3.00;;;;;;;12.49;83.32;102640.03;4989371;28;20117;-65
2022/07/10 02:09:19;;;;;;;7.75;3.25;;;;;;;12.48;83.62;102630.06;5007589;28;20440;-65
2022/07/10 02:11:44;;;;;;;7.50;3.05;;;;;;;12.40;83.42;102631.88;5009038;28;20030;-64
2022/07/10 02:14:09;;;;;;;7.75;3.15;;;;;;;12.36;84.50;102636.06;5007319;28;20026;-65
2022/07/10 02:16:35;;;;;;;9.40;3.25;;;;;;;12.35;84.42;102628.88;4988004;28;20073;-65
2022/07/10 02:19:01;;;;;;;7.25;3.20;;;;;;;12.33;83.93;102631.00;4988532;28;20101;-65
2022/07/10 02:21:26;;;;;;;8.02;2.90;;;;;;;12.33;83.75;102636.50;4988313;28;20113;-65
2022/07/10 02:23:51;;;;;;;8.73;3.47;;;;;;;12.30;84.18;102636.88;5007639;28;20018;-66
2022/07/10 02:26:17;;;;;;;9.23;3.70;;;;;;;12.31;84.18;102638.56;4987770;28;20073;-65
2022/07/10 02:28:42;;;;;;;8.73;3.13;;;;;;;12.28;84.10;102639.00;5000393;28;20118;-64
2022/07/10 02:31:07;;;;;;;11.63;3.30;;;;;;;12.27;84.55;102645.56;4988185;28;20026;-65
2022/07/10 02:33:33;;;;;;;6.47;3.03;;;;;;;12.26;84.67;102641.06;4987526;28;20034;-65
2022/07/10 02:35:58;;;;;;;6.40;3.28;;;;;;;12.28;84.60;102643.66;4991517;28;20806;-65
2022/07/10 02:38:23;;;;;;;6.90;3.17;;;;;;;12.32;84.99;102634.81;5007349;28;20030;-65
2022/07/10 02:40:48;;;;;;;10.40;3.75;;;;;;;12.40;84.57;102642.06;5007950;28;20405;-64
2022/07/10 02:43:14;;;;;;;9.60;3.38;;;;;;;12.45;84.53;102629.38;4994509;28;20080;-65
2022/07/10 02:45:39;;;;;;;7.45;3.17;;;;;;;12.51;84.19;102626.88;4988116;28;20440;-64
2022/07/10 02:48:04;;;;;;;8.77;3.10;;;;;;;12.53;84.16;102628.41;4988168;28;20304;-64
2022/07/10 02:50:30;;;;;;;8.07;3.60;;;;;;;12.58;84.54;102625.03;5006091;28;20113;-64
2022/07/10 02:52:55;;;;;;;9.75;3.47;;;;;;;12.58;84.26;102623.13;4995977;28;20056;-64
2022/07/10 02:55:20;;;;;;;8.13;3.00;;;;;;;12.62;84.44;102623.56;4988290;28;20022;-65
2022/07/10 02:57:45;;;;;;;9.15;3.10;;;;;;;12.63;84.32;102623.38;4988388;28;20069;-65
2022/07/10 03:00:12;;;;;;;7.97;3.30;;;;;;;12.63;84.21;102615.13;4987600;28;20033;-64
2022/07/10 03:02:38;;;;;;;11.60;3.80;;;;;;;12.60;84.40;102612.75;4996318;28;20522;-64
2022/07/10 03:05:04;;;;;;;8.18;3.58;;;;;;;12.58;84.14;102609.34;4988011;28;20026;-65
2022/07/10 03:07:29;;;;;;;9.30;3.70;;;;;;;12.56;84.47;102613.34;4987552;28;20504;-65
2022/07/10 03:09:54;;;;;;;8.82;3.35;;;;;;;12.55;84.74;102608.88;4987673;28;20031;-65
2022/07/10 03:12:19;;;;;;;9.38;3.50;;;;;;;12.54;84.91;102616.31;4987764;28;20022;-65
2022/07/10 03:14:45;;;;;;;8.45;3.53;;;;;;;12.50;84.47;102619.66;4992031;28;20037;-67
2022/07/10 03:17:10;;;;;;;9.48;4.30;;;;;;;12.46;85.02;102620.06;4995614;28;20555;-64
2022/07/10 03:19:35;;;;;;;9.52;3.60;;;;;;;12.42;85.11;102623.44;4987248;28;20034;-65
2022/07/10 03:22:00;;;;;;;9.65;3.40;;;;;;;12.42;85.23;102618.78;4987138;28;20518;-64
2022/07/10 03:24:26;;;;;;;8.05;3.10;;;;;;;12.46;85.37;102621.97;4987096;28;20026;-64
2022/07/10 03:26:51;;;;;;;8.52;3.65;;;;;;;12.50;85.38;102626.03;4987649;28;20030;-67
2022/07/10 03:29:16;;;;;;;10.25;3.95;;;;;;;12.53;85.83;102609.09;4986500;28;20439;-66
2022/07/10 03:31:42;;;;;;;9.63;3.42;;;;;;;12.57;85.42;102610.41;4987132;28;20030;-64
2022/07/10 03:34:07;;;;;;;11.05;3.75;;;;;;;12.63;85.63;102619.78;4986876;28;20595;-65
2022/07/10 03:36:33;;;;;;;11.52;3.85;;;;;;;12.63;85.04;102606.00;4987779;28;20042;-65
2022/07/10 03:38:58;;;;;;;9.45;3.67;;;;;;;12.69;84.97;102602.44;4976143;28;20058;-65
2022/07/10 03:41:23;;;;;;;11.27;3.80;;;;;;;12.71;84.90;102600.31;4968212;28;20362;-65
2022/07/10 03:43:48;;;;;;;7.63;3.97;;;;;;;12.68;85.15;102598.81;4991637;28;20038;-64
2022/07/10 03:46:14;;;;;;;11.52;4.22;;;;;;;12.65;85.57;102603.88;4990071;28;20025;-64
2022/07/10 03:48:39;;;;;;;10.20;4.25;;;;;;;12.61;85.67;102613.59;5001891;28;20030;-64
2022/07/10 03:51:04;;;;;;;10.20;4.28;;;;;;;12.58;85.60;102600.22;4987107;28;20030;-64
2022/07/10 03:53:30;;;;;;;10.23;4.28;;;;;;;12.56;85.84;102605.06;4987014;28;20030;-65
2022/07/10 03:55:55;;;;;;;10.52;3.92;;;;;;;12.57;85.76;102599.38;4985744;28;20114;-64
2022/07/10 03:58:21;;;;;;;10.30;3.83;;;;;;;12.58;85.81;102600.22;4986410;28;20026;-64
2022/07/10 04:00:46;;;;;;;10.00;4.20;;;;;;;12.56;85.96;102605.94;4987480;28;20061;-65
2022/07/10 04:03:13;;;;;;;10.45;3.88;;;;;;;12.58;85.85;102600.22;5001016;28;20061;-64
2022/07/10 04:05:39;;;;;;;12.82;4.30;;;;;;;12.60;86.20;102598.13;5006575;28;20428;-64
2022/07/10 04:08:05;;;;;;;8.38;3.90;;;;;;;12.65;86.12;102609.38;5005445;28;20045;-64
2022/07/10 04:10:31;;;;;;;11.68;4.22;;;;;;;12.67;86.06;102594.38;5000598;28;20440;-65
2022/07/10 04:12:57;;;;;;;8.18;3.50;;;;;;;12.74;86.15;102599.91;5006376;28;20156;-65
2022/07/10 04:15:23;;;;;;;12.38;4.28;;;;;;;12.78;86.39;102597.63;5003575;28;20113;-64
2022/07/10 04:17:49;;;;;;;8.13;3.50;;;;;;;12.78;85.56;102584.69;4986601;28;20018;-64
2022/07/10 04:20:16;;;;;;;10.65;3.83;;;;;;;12.81;84.83;102578.72;4985207;28;20129;-66
2022/07/10 04:22:41;;;;;;;8.13;3.70;;;;;;;12.90;85.00;102590.47;4986947;28;20673;-65
2022/07/10 04:25:08;;;;;;;9.63;3.90;;;;;;;12.95;85.18;102597.06;5006013;28;20038;-65
2022/07/10 04:27:33;;;;;;;10.35;3.92;;;;;;;13.02;85.22;102597.09;5005775;28;20030;-65
2022/07/10 04:29:59;;;;;;;10.38;3.92;;;;;;;13.04;85.40;102599.66;4989900;28;20030;-65
2022/07/10 04:32:24;;;;;;;8.68;3.53;;;;;;;13.07;85.38;102596.47;4986492;28;20365;-65
2022/07/10 04:34:49;;;;;;;10.85;3.97;;;;;;;13.11;84.58;102600.53;4985672;28;20089;-65
2022/07/10 04:37:15;;;;;;;10.70;3.80;;;;;;;13.13;84.65;102599.28;4994208;28;20508;-65
2022/07/10 04:39:40;;;;;;;10.93;3.80;;;;;;;13.15;84.64;102597.16;4992841;28;20026;-65
2022/07/10 04:42:07;;;;;;;10.02;3.90;;;;;;;13.18;84.37;102601.44;4993684;28;20026;-65
2022/07/10 04:44:33;;;;;;;15.45;4.68;;;;;;;13.24;84.88;102603.41;5004962;28;20025;-65
2022/07/10 04:46:58;;;;;;;11.65;4.30;;;;;;;13.22;84.43;102602.75;5004819;28;20025;-65
2022/07/10 04:49:24;;;;;;;11.85;3.63;;;;;;;13.27;85.07;102605.72;4992741;28;20049;-65
2022/07/10 04:51:49;;;;;;;12.68;3.78;;;;;;;13.30;84.54;102607.25;5000692;28;20022;-65
2022/07/10 04:54:15;;;;;;;11.77;4.15;;;;;;;13.34;84.16;102600.25;4992637;28;20049;-64
2022/07/10 04:56:40;;;;;;;9.30;4.05;;;;;;;13.35;84.31;102583.50;4991974;28;20421;-65
2022/07/10 04:59:06;;;;;;;9.27;4.00;;;;;;;13.34;84.53;102579.03;4995876;28;20030;-65
2022/07/10 05:01:31;;;;;;;9.85;3.35;;;;;;;13.46;84.67;102593.06;4983952;28;20062;-65
2022/07/10 05:03:56;;;;;;;9.65;4.00;;;;;;;13.48;84.10;102600.09;4984747;28;20026;-65
2022/07/10 05:06:21;;;;;;;11.25;4.00;;;;;;;13.53;83.80;102604.97;4985530;28;20492;-65
2022/07/10 05:08:47;;;;;;;6.97;3.40;;;;;;;13.54;82.98;102600.34;4989706;28;20057;-65
2022/07/10 05:11:12;;;;;;;10.05;3.45;;;;;;;13.59;83.79;102615.22;4985197;28;20034;-65
2022/07/10 05:13:38;;;;;;;8.13;3.60;;;;;;;13.62;83.44;102613.94;4985764;28;20038;-64
2022/07/10 05:16:04;;;;;;;9.90;3.55;;;;;;;13.64;83.23;102611.84;4995629;28;20027;-65
2022/07/10 05:18:30;;;;;;;13.63;3.97;;;;;;;13.67;83.59;102608.63;4986919;28;20028;-65
2022/07/10 05:20:55;;;;;;;12.15;3.83;;;;;;;13.65;83.46;102608.84;4997563;28;20480;-65
2022/07/10 05:23:21;;;;;;;6.85;3.10;;;;;;;13.62;83.49;102600.97;4987739;28;20030;-65
2022/07/10 05:25:46;;;;;;;9.05;3.25;;;;;;;13.58;83.51;102602.44;4986677;28;20400;-65
2022/07/10 05:28:14;;;;;;;10.93;3.70;;;;;;;13.58;84.20;102607.97;4985984;28;20031;-65
2022/07/10 05:30:39;;;;;;;9.68;3.92;;;;;;;13.56;84.37;102606.50;4984430;28;20140;-65
2022/07/10 05:33:04;;;;;;;10.00;3.97;;;;;;;13.58;84.78;102607.13;4985141;28;20035;-65
2022/07/10 05:35:30;;;;;;;9.68;3.80;;;;;;;13.60;84.69;102607.78;4984670;28;20155;-65
2022/07/10 05:37:55;;;;;;;9.68;3.65;;;;;;;13.60;84.40;102605.88;4987374;28;20022;-65
2022/07/10 05:40:20;;;;;;;13.73;3.85;;;;;;;13.62;84.23;102614.78;4987980;28;20657;-65
2022/07/10 05:42:45;;;;;;;11.65;3.88;;;;;;;13.68;84.21;102610.34;4985088;28;20037;-65
2022/07/10 05:45:11;;;;;;;11.77;3.63;;;;;;;13.78;83.97;102613.53;4984829;28;20034;-64
2022/07/10 05:47:37;;;;;;;10.00;3.40;;;;;;;13.89;84.13;102614.84;5000961;28;20069;-65
2022/07/10 05:50:03;;;;;;;13.02;3.95;;;;;;;13.94;84.25;102612.31;4992896;28;20026;-65
2022/07/10 05:52:29;;;;;;;12.93;3.70;;;;;;;14.02;84.45;102618.47;4984381;28;20125;-65
2022/07/10 05:54:56;;;;;;;13.00;3.95;;;;;;;14.13;84.29;102607.88;4984380;28;20200;-65
2022/07/10 05:57:22;;;;;;;11.80;4.75;;;;;;;14.24;82.92;102602.56;4984797;28;20700;-65
2022/07/10 05:59:47;;;;;;;10.95;3.25;;;;;;;14.34;82.63;102596.59;4984793;28;20026;-64
2022/07/10 06:02:13;;;;;;;11.68;3.65;;;;;;;14.41;82.54;102597.47;5001021;28;20030;-65
2022/07/10 06:04:38;;;;;;;11.65;3.40;;;;;;;14.46;82.34;102599.59;4991898;28;20488;-65
2022/07/10 06:07:04;;;;;;;11.10;3.72;;;;;;;14.54;83.14;102599.38;4978700;28;20137;-65
2022/07/10 06:09:29;;;;;;;9.38;3.40;;;;;;;14.60;82.84;102600.44;5003750;28;20128;-65
2022/07/10 06:11:54;;;;;;;13.43;3.20;;;;;;;14.63;80.91;102594.50;5004450;28;20033;-65
2022/07/10 06:14:20;;;;;;;13.85;3.22;;;;;;;14.67;80.48;102595.75;4987175;28;20060;-65
2022/07/10 06:16:45;;;;;;;16.80;3.67;;;;;;;14.71;80.01;102597.03;4985463;28;20050;-66
2022/07/10 06:19:10;;;;;;;14.05;3.97;;;;;;;14.76;80.42;102591.72;4988494;28;20793;-65
2022/07/10 06:21:35;;;;;;;11.27;2.83;;;;;;;14.84;80.31;102587.84;4994753;28;20026;-64
2022/07/10 06:24:01;;;;;;;12.18;3.28;;;;;;;14.97;79.27;102588.66;5002294;28;20523;-65
2022/07/10 06:26:26;;;;;;;11.48;3.50;;;;;;;15.21;79.33;102600.94;5003510;28;20076;-65
2022/07/10 06:28:51;;;;;;;9.77;2.58;;;;;;;15.44;77.70;102589.31;5000351;28;20042;-67
2022/07/10 06:31:16;;;;;;;9.70;2.95;;;;;;;15.52;76.79;102596.53;5007347;28;20018;-65
2022/07/10 06:33:42;;;;;;;11.57;3.35;;;;;;;15.52;76.10;102585.47;5008141;28;20030;-65
2022/07/10 06:36:07;;;;;;;12.27;2.72;;;;;;;15.53;76.48;102590.78;5007754;28;20092;-64
2022/07/10 06:38:33;;;;;;;12.25;3.03;;;;;;;15.57;76.91;102596.72;4989649;28;20113;-65
2022/07/10 06:40:59;;;;;;;14.68;3.03;;;;;;;15.63;76.10;102598.63;4987021;28;20077;-65
2022/07/10 06:43:24;;;;;;;17.70;3.10;;;;;;;15.78;74.76;102593.63;4988533;28;20022;-65
2022/07/10 06:45:50;;;;;;;12.23;3.00;;;;;;;15.94;74.27;102596.94;4988105;28;20105;-64
2022/07/10 06:48:16;;;;;;;14.80;3.63;;;;;;;16.09;73.47;102597.47;4986028;28;20436;-66
2022/07/10 06:50:41;;;;;;;10.43;3.03;;;;;;;16.28;74.43;102592.84;4987635;28;20065;-65
2022/07/10 06:53:07;;;;;;;13.95;3.38;;;;;;;16.44;73.41;102595.06;4985708;28;20537;-64
2022/07/10 06:55:33;;;;;;;8.43;2.58;;;;;;;16.52;72.55;102600.28;4987388;28;20038;-64
2022/07/10 06:57:59;;;;;;;14.13;2.67;;;;;;;16.70;73.94;102587.53;4994684;28;20432;-65
2022/07/10 07:00:25;;;;;;;13.40;2.65;;;;;;;16.79;71.29;102594.53;4991467;28;20022;-64
2022/07/10 07:02:51;;;;;;;12.70;2.80;;;;;;;16.83;70.21;102582.75;4995307;28;20023;-64
2022/07/10 07:05:16;;;;;;;12.02;2.53;;;;;;;17.02;71.45;102586.34;4987651;28;20045;-65
2022/07/10 07:07:41;;;;;;;13.23;3.20;;;;;;;17.12;69.76;102589.44;4986833;28;20099;-65
2022/07/10 07:10:08;;;;;;;15.38;2.90;;;;;;;17.25;71.08;102591.22;4987082;28;20088;-65
2022/07/10 07:12:33;;;;;;;12.23;3.10;;;;;;;17.31;70.95;102589.44;4986674;28;20034;-64
2022/07/10 07:14:58;;;;;;;13.48;3.28;;;;;;;17.32;69.07;102591.13;4986752;28;20069;-64
2022/07/10 07:17:33;;;;;;;12.25;2.88;;;;;;;17.58;71.29;102596.31;4986742;28;20030;-64
2022/07/10 07:25:27;;;;;;;12.27;3.25;;;;;;;17.55;70.05;102596.81;4983872;28;20767;-64
2022/07/10 07:27:53;;;;;;;11.32;3.38;;;;;;;17.46;69.14;102603.75;4986852;28;20054;-66
2022/07/10 07:30:18;;;;;;;11.20;3.20;;;;;;;17.50;69.33;102605.00;4986597;28;20031;-64
2022/07/10 07:32:45;;;;;;;14.18;3.45;;;;;;;17.49;69.72;102600.53;4986743;28;20057;-64
2022/07/10 07:35:12;;;;;;;11.48;3.85;;;;;;;17.44;69.19;102602.31;4985009;28;20035;-64
2022/07/10 07:37:39;;;;;;;15.50;4.72;;;;;;;17.53;70.19;102598.94;4984110;28;20061;-64
2022/07/10 07:40:08;;;;;;;15.10;4.95;;;;;;;17.53;68.34;102601.72;4985995;28;20083;-65
2022/07/10 07:42:34;;;;;;;14.75;5.43;;;;;;;17.54;67.63;102595.13;4985894;28;20030;-64
2022/07/10 07:44:59;;;;;;;15.63;5.22;;;;;;;17.51;68.40;102597.50;4985700;28;20088;-64
2022/07/10 07:47:25;;;;;;;14.77;5.28;;;;;;;17.50;71.34;102599.44;5000096;28;20038;-63
2022/07/10 07:49:50;;;;;;;17.92;4.88;;;;;;;17.40;69.31;102601.91;4982783;28;20061;-64
2022/07/10 07:52:15;;;;;;;12.77;4.83;;;;;;;17.25;69.64;102599.53;4986566;28;20026;-67
2022/07/10 07:54:40;;;;;;;18.13;7.15;;;;;;;17.17;70.20;102596.22;4988083;28;20294;-65
2022/07/10 07:57:06;;;;;;;17.55;4.88;;;;;;;17.12;72.01;102597.75;5000945;28;20197;-64
2022/07/10 07:59:31;;;;;;;12.57;4.60;;;;;;;17.12;72.16;102606.09;4992464;28;20027;-65
2022/07/10 08:01:56;;;;;;;13.93;4.50;;;;;;;17.03;71.38;102604.72;4986185;28;20073;-64
2022/07/10 08:04:22;;;;;;;12.15;3.45;;;;;;;16.90;70.78;102606.78;5005550;28;20028;-64
2022/07/10 08:06:47;;;;;;;14.50;3.75;;;;;;;16.82;72.01;102611.53;4987017;28;20120;-64
2022/07/10 08:09:12;;;;;;;13.55;3.88;;;;;;;16.84;71.44;102609.41;4990130;28;20038;-64
2022/07/10 08:11:38;;;;;;;13.02;4.00;;;;;;;16.87;70.61;102605.31;5001034;28;20078;-64
2022/07/10 08:14:03;;;;;;;14.02;4.30;;;;;;;17.04;72.95;102603.63;4994440;28;20124;-64
2022/07/10 08:16:28;;;;;;;12.15;4.60;;;;;;;17.24;72.15;102600.63;5000733;28;20030;-64
2022/07/10 08:18:54;;;;;;;10.68;4.95;;;;;;;17.39;69.97;102600.22;4999099;28;20033;-64
2022/07/10 08:21:19;;;;;;;14.27;4.93;;;;;;;17.44;69.82;102600.38;4993762;28;20037;-64
2022/07/10 08:23:45;;;;;;;15.00;5.10;;;;;;;17.49;69.55;102594.97;4987723;28;20442;-65
2022/07/10 08:26:10;;;;;;;16.33;4.72;;;;;;;17.48;70.43;102596.03;4998148;28;20029;-64
2022/07/10 08:28:35;;;;;;;17.67;4.60;;;;;;;17.47;70.71;102591.56;4996461;28;20429;-64
2022/07/10 08:31:01;;;;;;;13.65;4.35;;;;;;;17.42;70.18;102599.75;4995089;28;20080;-64
2022/07/10 08:33:26;;;;;;;17.27;4.43;;;;;;;17.33;69.13;102603.91;5001443;28;20041;-64
2022/07/10 08:35:53;;;;;;;12.82;4.15;;;;;;;17.34;70.17;102591.75;4997751;28;20037;-65
2022/07/10 08:38:18;;;;;;;13.32;4.75;;;;;;;17.41;70.76;102595.28;4984692;28;20657;-64
2022/07/10 08:40:45;;;;;;;12.50;4.07;;;;;;;17.41;69.56;102597.22;4990456;28;20026;-64
2022/07/10 08:43:11;;;;;;;13.35;4.72;;;;;;;17.50;71.69;102593.88;4989830;28;20030;-64
2022/07/10 08:45:36;;;;;;;12.45;4.03;;;;;;;17.56;70.40;102594.88;5005143;28;20446;-64
2022/07/10 08:48:05;;;;;;;13.90;4.90;;;;;;;17.50;70.08;102591.09;4986183;28;20034;-64
2022/07/10 08:50:33;;;;;;;12.98;4.20;;;;;;;17.43;69.76;102601.44;4985154;28;20028;-64
2022/07/10 08:53:09;;;;;;;12.10;4.20;;;;;;;17.46;69.99;102600.97;4985272;28;20049;-64
2022/07/10 08:55:36;;;;;;;14.32;4.35;;;;;;;17.44;71.03;102605.94;4985603;28;20491;-63
2022/07/10 08:58:03;;;;;;;13.40;4.28;;;;;;;17.44;70.43;102607.88;4984197;28;20033;-64
2022/07/10 09:00:29;;;;;;;12.90;3.95;;;;;;;17.44;70.68;102607.88;4985620;28;20030;-64
2022/07/10 09:02:56;;;;;;;9.73;4.55;;;;;;;17.38;70.10;102607.69;4985620;28;20484;-64
2022/07/10 09:05:22;;;;;;;13.23;3.88;;;;;;;17.33;70.23;102609.47;4985446;28;20065;-64
2022/07/10 09:07:47;;;;;;;12.48;3.95;;;;;;;17.31;69.84;102604.16;4984459;28;20043;-64
2022/07/10 09:10:13;;;;;;;14.73;4.05;;;;;;;17.31;70.90;102603.31;4983567;28;20049;-64
2022/07/10 09:12:57;;;;;;;10.95;3.75;;;;;;;17.41;70.47;102598.06;4986081;28;20061;-64
2022/07/10 09:15:25;;;;;;;12.07;4.72;;;;;;;17.43;71.18;102601.44;4985402;28;20027;-64
2022/07/10 09:17:54;;;;;;;12.55;4.07;;;;;;;17.48;71.14;102604.34;4994328;28;20109;-64
2022/07/10 09:20:30;;;;;;;12.02;4.30;;;;;;;17.48;69.92;102593.25;4988859;28;20029;-64
2022/07/10 09:22:57;;;;;;;11.43;4.10;;;;;;;17.41;70.29;102597.22;4984833;28;20118;-64
2022/07/10 09:25:31;;;;;;;14.60;4.45;;;;;;;17.38;71.12;102587.41;4992295;28;20022;-64
2022/07/10 09:27:58;;;;;;;7.53;3.95;;;;;;;17.37;70.92;102586.56;4985636;28;20031;-64
2022/07/10 09:30:37;;;;;;;10.48;3.72;;;;;;;17.57;72.03;102579.88;4985015;28;20052;-64
2022/07/10 09:33:25;;;;;;;11.63;3.97;;;;;;;17.79;70.58;102585.78;4985446;28;20030;-64
2022/07/10 09:38:43;;;;;;;9.13;3.75;;;;;;;18.30;68.93;102574.06;4985052;28;20058;-64
2022/07/10 09:41:22;;;;;;;9.80;4.03;;;;;;;18.92;66.46;102571.66;4999969;28;20037;-63
2022/07/10 09:44:00;;;;;;;12.32;4.28;;;;;;;19.52;63.71;102564.81;4985585;28;20026;-64
2022/07/10 09:46:33;;;;;;;;;;;;;;;19.95;65.71;102572.63;4984372;28;20026;-64
2022/07/10 09:49:03;;;;;;;9.73;3.95;;;;;;;19.58;63.66;102563.81;4984326;28;19953;-64
2022/07/10 09:51:34;;;;;;;10.85;4.43;;;;;;;19.26;64.33;102568.16;4984250;28;20038;-64
2022/07/10 09:54:02;;;;;;;11.85;4.72;;;;;;;19.00;65.37;102570.41;4986214;28;20027;-64
2022/07/10 09:56:30;;;;;;;10.10;4.38;;;;;;;18.75;65.60;102569.84;4989276;28;20038;-65
2022/07/10 09:58:59;;;;;;;11.10;4.75;;;;;;;18.75;68.17;102564.28;5008611;28;20022;-65
2022/07/10 10:01:27;;;;;;;13.07;5.68;;;;;;;19.36;67.95;102562.81;5008082;28;20030;-65
2022/07/10 10:03:53;;;;;;;14.68;5.38;;;;;;;20.12;63.44;102571.78;4988767;28;20495;-66
2022/07/10 10:06:19;;;;;;;11.45;5.10;;;;;;;20.49;62.77;102555.41;4989781;28;20118;-65
2022/07/10 10:08:56;;;;;;;11.82;5.07;;;;;;;20.38;62.09;102559.13;4987321;28;20133;-65
2022/07/10 10:11:25;;;;;;;11.43;5.13;;;;;;;20.24;62.61;102561.41;4987985;28;20031;-65
2022/07/10 10:13:52;;;;;;;10.75;4.75;;;;;;;20.19;59.51;102561.31;4987180;28;20076;-65
2022/07/10 10:16:19;;;;;;;10.88;4.25;;;;;;;20.24;61.68;102555.81;4988050;28;20038;-65
2022/07/10 10:21:29;;;;;;;10.63;4.30;;;;;;;20.22;60.99;102552.41;4987852;28;20535;-65
2022/07/10 10:23:55;;;;;;;13.48;4.35;;;;;;;20.19;61.30;102553.78;4988206;28;20026;-65
2022/07/10 10:26:22;;;;;;;8.95;3.50;;;;;;;20.17;60.45;102549.53;4987674;28;20050;-65
2022/07/10 10:28:49;;;;;;;10.45;3.42;;;;;;;20.38;60.48;102550.75;4988244;28;20018;-65
2022/07/10 10:31:14;;;;;;;11.15;3.65;;;;;;;20.90;58.70;102542.03;4987282;28;20461;-65
2022/07/10 10:33:42;;;;;;;9.77;3.42;;;;;;;21.24;56.97;102538.00;4988746;28;20081;-65
2022/07/10 10:36:08;;;;;;;8.13;3.38;;;;;;;21.82;59.82;102548.69;4986484;28;20387;-64
2022/07/10 10:38:53;;;;;;;7.22;3.03;;;;;;;21.78;56.67;102542.78;4987877;28;20523;-65
2022/07/10 10:41:41;;;;;;;7.70;3.38;;;;;;;21.76;56.19;102548.66;4986497;28;20045;-65
2022/07/10 10:44:06;;;;;;;8.52;3.13;;;;;;;21.42;58.86;102541.56;4982621;28;20029;-65
2022/07/10 10:46:31;;;;;;;9.33;3.53;;;;;;;21.40;56.87;102538.22;5001451;28;20030;-65
2022/07/10 10:49:07;;;;;;;8.17;3.73;;;;;;;21.19;57.72;102535.16;5000485;28;20030;-65
2022/07/10 10:52:01;;;;;;;9.80;3.03;;;;;;;21.00;58.24;102542.16;5007022;28;20281;-65
2022/07/10 10:54:28;;;;;;;10.38;3.47;;;;;;;21.15;58.13;102547.94;5007571;28;20040;-65
2022/07/10 10:57:14;;;;;;;12.23;4.20;;;;;;;21.53;57.53;102539.72;4993944;28;20033;-65
2022/07/10 10:59:46;;;;;;;8.95;4.15;;;;;;;21.50;56.09;102530.78;4987952;28;20042;-65
2022/07/10 11:02:32;;;;;;;7.15;2.88;;;;;;;21.60;57.18;102532.00;4986788;28;20485;-64
2022/07/10 11:05:23;;;;;;;7.68;3.03;;;;;;;21.52;57.76;102533.28;4987333;28;20125;-65
2022/07/10 11:07:55;;;;;;;7.20;3.05;;;;;;;21.30;57.42;102530.53;4987348;28;20047;-65
2022/07/10 11:10:26;;;;;;;7.97;2.97;;;;;;;21.25;57.22;102528.50;4986785;28;20091;-66
2022/07/10 11:12:58;;;;;;;9.00;3.10;;;;;;;21.28;57.68;102531.88;4987142;28;20125;-67
2022/07/10 11:15:24;;;;;;;7.93;3.20;;;;;;;21.19;56.34;102523.13;4987599;28;20397;-65
2022/07/10 11:17:50;;;;;;;10.57;3.30;;;;;;;21.19;56.83;102529.56;4986151;28;20026;-64
2022/07/10 11:20:16;;;;;;;9.40;3.47;;;;;;;21.08;57.99;102522.13;4987138;28;20496;-68
2022/07/10 11:22:54;;;;;;;8.32;3.20;;;;;;;20.97;58.67;102526.75;4986158;28;20049;-65
2022/07/10 11:25:52;;;;;;;8.95;3.28;;;;;;;20.91;57.85;102525.00;4986707;28;20030;-64
2022/07/10 11:28:24;;;;;;;7.45;3.25;;;;;;;20.87;58.85;102528.56;4998286;28;20120;-65
2022/07/10 11:30:52;;;;;;;7.80;3.30;;;;;;;21.00;58.73;102522.59;5004294;28;20477;-64
2022/07/10 11:33:20;;;;;;;8.50;3.22;;;;;;;21.12;58.21;102520.50;4988428;28;20026;-65